Terminal Aerodrome Forecast
Issued by NWS

Home | Current Version | Previous Version | Graphics & Text | Print | Product List | Glossary On
Versions: 1 2 3 4 5 6 7 8 9 10 11 12 13 14 15 16 17 18 19 20 21 22 23 24 25 26 27 28
000
FTUS43 KMPX 290500
TAFAXN
TAF
KAXN 290530Z 2906/3006 03013KT P6SM VCSH SCT007 OVC012
      TEMPO 2908/2912 OVC007
     FM291200 05012KT P6SM BKN007 OVC015
     FM291600 06012KT P6SM SCT007 OVC020
     FM292100 08012KT P6SM SCT020 BKN050
     FM300000 09007KT P6SM SCT050 BKN120=

USA.gov is the U.S. government's official web portal to all federal, state and local government web resources and services.